sensor_id;sensor_type;location;lat;lon;timestamp;pressure;altitude;pressure_sealevel;temperature;humidity
33454;BME280;39400;49.744;7.012;2023-04-23T00:01:25;95275.59;;;9.79;100.00
33454;BME280;39400;49.744;7.012;2023-04-23T00:03:51;95272.84;;;9.79;100.00
33454;BME280;39400;49.744;7.012;2023-04-23T00:06:17;95280.28;;;9.82;100.00
33454;BME280;39400;49.744;7.012;2023-04-23T00:08:43;95276.78;;;9.82;100.00
33454;BME280;39400;49.744;7.012;2023-04-23T00:11:09;95269.38;;;9.75;100.00
33454;BME280;39400;49.744;7.012;2023-04-23T00:13:36;95281.16;;;9.72;100.00
33454;BME280;39400;49.744;7.012;2023-04-23T00:16:01;95275.28;;;9.73;100.00
33454;BME280;39400;49.744;7.012;2023-04-23T00:18:27;95270.53;;;9.77;100.00
33454;BME280;39400;49.744;7.012;2023-04-23T00:20:52;95272.47;;;9.81;100.00
33454;BME280;39400;49.744;7.012;2023-04-23T00:23:17;95278.28;;;9.86;100.00
33454;BME280;39400;49.744;7.012;2023-04-23T00:25:43;95276.38;;;9.80;100.00
33454;BME280;39400;49.744;7.012;2023-04-23T00:28:08;95272.47;;;9.81;100.00
33454;BME280;39400;49.744;7.012;2023-04-23T00:30:33;95262.31;;;9.74;100.00
33454;BME280;39400;49.744;7.012;2023-04-23T00:32:59;95277.66;;;9.68;100.00
33454;BME280;39400;49.744;7.012;2023-04-23T00:35:24;95260.84;;;9.62;100.00
33454;BME280;39400;49.744;7.012;2023-04-23T00:37:49;95259.75;;;9.52;100.00
33454;BME280;39400;49.744;7.012;2023-04-23T00:40:15;95267.88;;;9.67;100.00
33454;BME280;39400;49.744;7.012;2023-04-23T00:42:40;95267.88;;;9.67;100.00
33454;BME280;39400;49.744;7.012;2023-04-23T00:45:06;95263.25;;;9.57;100.00
33454;BME280;39400;49.744;7.012;2023-04-23T00:47:33;95259.69;;;9.60;100.00
33454;BME280;39400;49.744;7.012;2023-04-23T00:49:58;95257.00;;;9.52;100.00
33454;BME280;39400;49.744;7.012;2023-04-23T00:52:23;95252.38;;;9.42;100.00
33454;BME280;39400;49.744;7.012;2023-04-23T00:54:49;95256.69;;;9.40;100.00
33454;BME280;39400;49.744;7.012;2023-04-23T00:57:14;95255.53;;;9.37;100.00
33454;BME280;39400;49.744;7.012;2023-04-23T00:59:40;95259.47;;;9.36;100.00
33454;BME280;39400;49.744;7.012;2023-04-23T01:02:05;95275.09;;;9.46;100.00
33454;BME280;39400;49.744;7.012;2023-04-23T01:04:31;95262.22;;;9.36;100.00
33454;BME280;39400;49.744;7.012;2023-04-23T01:06:57;95270.44;;;9.36;100.00
33454;BME280;39400;49.744;7.012;2023-04-23T01:09:23;95262.97;;;9.40;100.00
33454;BME280;39400;49.744;7.012;2023-04-23T01:11:50;95253.97;;;9.36;100.00
33454;BME280;39400;49.744;7.012;2023-04-23T01:14:15;95264.16;;;9.39;100.00
33454;BME280;39400;49.744;7.012;2023-04-23T01:16:41;95272.00;;;9.37;100.00
33454;BME280;39400;49.744;7.012;2023-04-23T01:19:09;95283.59;;;9.59;100.00
33454;BME280;39400;49.744;7.012;2023-04-23T01:21:35;95275.00;;;9.57;100.00
33454;BME280;39400;49.744;7.012;2023-04-23T01:24:04;95272.63;;;9.59;100.00
33454;BME280;39400;49.744;7.012;2023-04-23T01:26:30;95276.69;;;9.40;100.00
33454;BME280;39400;49.744;7.012;2023-04-23T01:28:56;95272.38;;;9.39;100.00
33454;BME280;39400;49.744;7.012;2023-04-23T01:31:22;95272.03;;;9.30;100.00
33454;BME280;39400;49.744;7.012;2023-04-23T01:33:49;95275.97;;;9.33;100.00
33454;BME280;39400;49.744;7.012;2023-04-23T01:36:15;95280.59;;;9.43;100.00
33454;BME280;39400;49.744;7.012;2023-04-23T01:38:40;95279.81;;;9.42;100.00
33454;BME280;39400;49.744;7.012;2023-04-23T01:41:06;95279.84;;;9.39;100.00
33454;BME280;39400;49.744;7.012;2023-04-23T01:43:32;95278.25;;;9.38;100.00
33454;BME280;39400;49.744;7.012;2023-04-23T01:45:57;95282.94;;;9.44;100.00
33454;BME280;39400;49.744;7.012;2023-04-23T01:48:23;95284.47;;;9.45;100.00
33454;BME280;39400;49.744;7.012;2023-04-23T01:50:50;95289.25;;;9.34;100.00
33454;BME280;39400;49.744;7.012;2023-04-23T01:53:15;95286.16;;;9.32;100.00
33454;BME280;39400;49.744;7.012;2023-04-23T01:55:42;95286.94;;;9.29;100.00
33454;BME280;39400;49.744;7.012;2023-04-23T01:58:09;95299.91;;;9.28;100.00
33454;BME280;39400;49.744;7.012;2023-04-23T02:00:35;95290.91;;;9.21;100.00
33454;BME280;39400;49.744;7.012;2023-04-23T02:03:00;95289.34;;;9.20;100.00
33454;BME280;39400;49.744;7.012;2023-04-23T02:05:27;95286.97;;;9.25;100.00
33454;BME280;39400;49.744;7.012;2023-04-23T02:07:53;95292.38;;;9.40;100.00
33454;BME280;39400;49.744;7.012;2023-04-23T02:10:19;95285.31;;;9.42;100.00
33454;BME280;39400;49.744;7.012;2023-04-23T02:12:46;95292.34;;;9.43;100.00
33454;BME280;39400;49.744;7.012;2023-04-23T02:15:13;95286.16;;;9.32;100.00
33454;BME280;39400;49.744;7.012;2023-04-23T02:17:38;95288.47;;;9.37;100.00
33454;BME280;39400;49.744;7.012;2023-04-23T02:20:06;95283.78;;;9.31;100.00
33454;BME280;39400;49.744;7.012;2023-04-23T02:22:31;95280.72;;;9.25;100.00
33454;BME280;39400;49.744;7.012;2023-04-23T02:24:57;95287.06;;;9.11;100.00
33454;BME280;39400;49.744;7.012;2023-04-23T02:27:22;95292.47;;;9.22;100.00
33454;BME280;39400;49.744;7.012;2023-04-23T02:29:48;95277.56;;;9.23;100.00
33454;BME280;39400;49.744;7.012;2023-04-23T02:32:13;95275.19;;;9.32;100.00
33454;BME280;39400;49.744;7.012;2023-04-23T02:34:39;95274.41;;;9.28;100.00
33454;BME280;39400;49.744;7.012;2023-04-23T02:37:05;95282.97;;;9.37;100.00
33454;BME280;39400;49.744;7.012;2023-04-23T02:39:30;95279.88;;;9.28;100.00
33454;BME280;39400;49.744;7.012;2023-04-23T02:41:56;95281.06;;;9.31;100.00
33454;BME280;39400;49.744;7.012;2023-04-23T02:44:21;95281.06;;;9.27;100.00
33454;BME280;39400;49.744;7.012;2023-04-23T02:46:46;95277.53;;;9.30;100.00
33454;BME280;39400;49.744;7.012;2023-04-23T02:49:12;95279.56;;;9.19;100.00
33454;BME280;39400;49.744;7.012;2023-04-23T02:51:37;95266.66;;;9.16;100.00
33454;BME280;39400;49.744;7.012;2023-04-23T02:54:03;95273.38;;;9.00;100.00
33454;BME280;39400;49.744;7.012;2023-04-23T02:56:28;95273.06;;;8.91;100.00
33454;BME280;39400;49.744;7.012;2023-04-23T02:58:53;95269.97;;;8.82;100.00
33454;BME280;39400;49.744;7.012;2023-04-23T03:01:19;95270.00;;;8.75;100.00
33454;BME280;39400;49.744;7.012;2023-04-23T03:03:44;95270.03;;;8.68;100.00
33454;BME280;39400;49.744;7.012;2023-04-23T03:06:10;95266.53;;;8.60;100.00
33454;BME280;39400;49.744;7.012;2023-04-23T03:08:35;95267.72;;;8.48;100.00
33454;BME280;39400;49.744;7.012;2023-04-23T03:11:00;95281.44;;;8.45;100.00
33454;BME280;39400;49.744;7.012;2023-04-23T03:13:26;95277.56;;;8.46;100.00
33454;BME280;39400;49.744;7.012;2023-04-23T03:15:52;95274.03;;;8.38;100.00
33454;BME280;39400;49.744;7.012;2023-04-23T03:18:18;95273.25;;;8.41;100.00
33454;BME280;39400;49.744;7.012;2023-04-23T03:20:49;95270.13;;;8.32;100.00
33454;BME280;39400;49.744;7.012;2023-04-23T03:23:15;95276.38;;;8.32;100.00
33454;BME280;39400;49.744;7.012;2023-04-23T03:25:41;95281.09;;;8.28;100.00
33454;BME280;39400;49.744;7.012;2023-04-23T03:28:06;95286.16;;;8.26;100.00
33454;BME280;39400;49.744;7.012;2023-04-23T03:30:32;95277.94;;;8.30;100.00
33454;BME280;39400;49.744;7.012;2023-04-23T03:32:57;95277.16;;;8.37;100.00
33454;BME280;39400;49.744;7.012;2023-04-23T03:35:24;95277.56;;;8.42;100.00
33454;BME280;39400;49.744;7.012;2023-04-23T03:37:51;95273.22;;;8.45;100.00
33454;BME280;39400;49.744;7.012;2023-04-23T03:40:18;95277.94;;;8.41;100.00
33454;BME280;39400;49.744;7.012;2023-04-23T03:42:47;95274.84;;;8.39;100.00
33454;BME280;39400;49.744;7.012;2023-04-23T03:45:14;95271.69;;;8.40;100.00
33454;BME280;39400;49.744;7.012;2023-04-23T03:47:40;95277.94;;;8.44;100.00
33454;BME280;39400;49.744;7.012;2023-04-23T03:50:06;95278.69;;;8.48;100.00
33454;BME280;39400;49.744;7.012;2023-04-23T03:52:32;95279.47;;;8.56;100.00
33454;BME280;39400;49.744;7.012;2023-04-23T03:54:58;95266.94;;;8.55;100.00
33454;BME280;39400;49.744;7.012;2023-04-23T03:57:29;95270.88;;;8.50;100.00
33454;BME280;39400;49.744;7.012;2023-04-23T04:00:10;95266.94;;;8.51;100.00
33454;BME280;39400;49.744;7.012;2023-04-23T04:02:39;95263.03;;;8.60;100.00
33454;BME280;39400;49.744;7.012;2023-04-23T04:05:05;95261.41;;;8.66;100.00
33454;BME280;39400;49.744;7.012;2023-04-23T04:07:30;95258.34;;;8.56;100.00
33454;BME280;39400;49.744;7.012;2023-04-23T04:09:56;95251.69;;;8.50;100.00
33454;BME280;39400;49.744;7.012;2023-04-23T04:12:24;95249.38;;;8.49;100.00
33454;BME280;39400;49.744;7.012;2023-04-23T04:14:49;95244.25;;;8.54;100.00
33454;BME280;39400;49.744;7.012;2023-04-23T04:17:14;95252.09;;;8.52;100.00
33454;BME280;39400;49.744;7.012;2023-04-23T04:19:40;95241.91;;;8.49;100.00
33454;BME280;39400;49.744;7.012;2023-04-23T04:22:05;95241.91;;;8.49;100.00
33454;BME280;39400;49.744;7.012;2023-04-23T04:24:30;95241.88;;;8.56;100.00
33454;BME280;39400;49.744;7.012;2023-04-23T04:26:56;95239.94;;;8.53;100.00
33454;BME280;39400;49.744;7.012;2023-04-23T04:29:21;95248.13;;;8.61;100.00
33454;BME280;39400;49.744;7.012;2023-04-23T04:31:46;95254.38;;;8.65;100.00
33454;BME280;39400;49.744;7.012;2023-04-23T04:34:12;95246.13;;;8.72;100.00
33454;BME280;39400;49.744;7.012;2023-04-23T04:36:37;95247.69;;;8.73;100.00
33454;BME280;39400;49.744;7.012;2023-04-23T04:39:02;95247.66;;;8.80;100.00
33454;BME280;39400;49.744;7.012;2023-04-23T04:41:28;95242.53;;;8.86;100.00
33454;BME280;39400;49.744;7.012;2023-04-23T04:43:53;95232.72;;;8.92;100.00
33454;BME280;39400;49.744;7.012;2023-04-23T04:46:19;95239.41;;;8.87;100.00
33454;BME280;39400;49.744;7.012;2023-04-23T04:48:45;95241.72;;;8.92;100.00
33454;BME280;39400;49.744;7.012;2023-04-23T04:51:11;95231.41;;;9.11;100.00
33454;BME280;39400;49.744;7.012;2023-04-23T04:53:36;95240.81;;;9.10;100.00
33454;BME280;39400;49.744;7.012;2023-04-23T04:56:02;95236.91;;;9.11;100.00
33454;BME280;39400;49.744;7.012;2023-04-23T04:58:27;95244.00;;;9.04;100.00
33454;BME280;39400;49.744;7.012;2023-04-23T05:00:52;95249.41;;;9.15;100.00
33454;BME280;39400;49.744;7.012;2023-04-23T05:03:18;95242.38;;;9.11;100.00
33454;BME280;39400;49.744;7.012;2023-04-23T05:05:43;95242.78;;;9.09;100.00
33454;BME280;39400;49.744;7.012;2023-04-23T05:08:09;95235.38;;;9.02;100.00
33454;BME280;39400;49.744;7.012;2023-04-23T05:10:34;95236.53;;;9.09;100.00
33454;BME280;39400;49.744;7.012;2023-04-23T05:13:00;95231.09;;;9.01;100.00
33454;BME280;39400;49.744;7.012;2023-04-23T05:15:25;95241.63;;;9.07;100.00
33454;BME280;39400;49.744;7.012;2023-04-23T05:17:50;95237.75;;;9.00;100.00
33454;BME280;39400;49.744;7.012;2023-04-23T05:20:16;95243.97;;;9.12;100.00
33454;BME280;39400;49.744;7.012;2023-04-23T05:22:41;95255.69;;;9.16;100.00
33454;BME280;39400;49.744;7.012;2023-04-23T05:25:08;95257.13;;;9.31;100.00
33454;BME280;39400;49.744;7.012;2023-04-23T05:27:34;95252.41;;;9.39;100.00
33454;BME280;39400;49.744;7.012;2023-04-23T05:30:03;95253.94;;;9.43;100.00
33454;BME280;39400;49.744;7.012;2023-04-23T05:32:29;95264.09;;;9.46;100.00
33454;BME280;39400;49.744;7.012;2023-04-23T05:34:55;95256.22;;;9.48;100.00
33454;BME280;39400;49.744;7.012;2023-04-23T05:37:20;95253.88;;;9.50;100.00
33454;BME280;39400;49.744;7.012;2023-04-23T05:39:46;95260.88;;;9.55;100.00
33454;BME280;39400;49.744;7.012;2023-04-23T05:42:11;95260.50;;;9.57;100.00
33454;BME280;39400;49.744;7.012;2023-04-23T05:44:36;95263.94;;;9.68;100.00
33454;BME280;39400;49.744;7.012;2023-04-23T05:47:02;95254.13;;;9.70;100.00
33454;BME280;39400;49.744;7.012;2023-04-23T05:49:27;95262.31;;;9.74;100.00
33454;BME280;39400;49.744;7.012;2023-04-23T05:51:52;95270.16;;;9.72;100.00
33454;BME280;39400;49.744;7.012;2023-04-23T05:54:17;95264.91;;;9.92;100.00
33454;BME280;39400;49.744;7.012;2023-04-23T05:56:43;95264.59;;;9.83;100.00
33454;BME280;39400;49.744;7.012;2023-04-23T05:59:08;95261.47;;;9.84;100.00
33454;BME280;39400;49.744;7.012;2023-04-23T06:01:34;95254.38;;;9.83;100.00
33454;BME280;39400;49.744;7.012;2023-04-23T06:03:59;95252.81;;;9.86;100.00
33454;BME280;39400;49.744;7.012;2023-04-23T06:06:25;95246.53;;;9.85;100.00
33454;BME280;39400;49.744;7.012;2023-04-23T06:08:50;95250.41;;;9.91;100.00
33454;BME280;39400;49.744;7.012;2023-04-23T06:11:15;95239.34;;;9.98;100.00
33454;BME280;39400;49.744;7.012;2023-04-23T06:13:41;95245.59;;;10.03;100.00
33454;BME280;39400;49.744;7.012;2023-04-23T06:16:06;95252.59;;;10.07;100.00
33454;BME280;39400;49.744;7.012;2023-04-23T06:18:32;95248.56;;;10.19;100.00
33454;BME280;39400;49.744;7.012;2023-04-23T06:20:57;95252.50;;;10.18;100.00
33454;BME280;39400;49.744;7.012;2023-04-23T06:23:22;95253.25;;;10.22;100.00
33454;BME280;39400;49.744;7.012;2023-04-23T06:25:48;95261.44;;;10.29;100.00
33454;BME280;39400;49.744;7.012;2023-04-23T06:28:13;95255.56;;;10.27;100.00
33454;BME280;39400;49.744;7.012;2023-04-23T06:30:59;95256.44;;;10.17;100.00
33454;BME280;39400;49.744;7.012;2023-04-23T06:33:24;95252.00;;;10.30;100.00
33454;BME280;39400;49.744;7.012;2023-04-23T06:35:49;95251.63;;;10.28;100.00
33454;BME280;39400;49.744;7.012;2023-04-23T06:38:15;95249.16;;;10.41;100.00
33454;BME280;39400;49.744;7.012;2023-04-23T06:40:40;95245.25;;;10.38;100.00
33454;BME280;39400;49.744;7.012;2023-04-23T06:43:05;95245.28;;;10.35;100.00
33454;BME280;39400;49.744;7.012;2023-04-23T06:45:49;95245.25;;;10.38;100.00
33454;BME280;39400;49.744;7.012;2023-04-23T06:48:15;95232.69;;;10.37;100.00
33454;BME280;39400;49.744;7.012;2023-04-23T06:50:40;95237.41;;;10.37;100.00
33454;BME280;39400;49.744;7.012;2023-04-23T06:53:06;95239.88;;;10.28;100.00
33454;BME280;39400;49.744;7.012;2023-04-23T06:55:31;95246.84;;;10.36;100.00
33454;BME280;39400;49.744;7.012;2023-04-23T06:57:56;95237.13;;;10.28;100.00
33454;BME280;39400;49.744;7.012;2023-04-23T07:00:22;95237.38;;;10.40;100.00
33454;BME280;39400;49.744;7.012;2023-04-23T07:02:48;95238.75;;;10.56;100.00
33454;BME280;39400;49.744;7.012;2023-04-23T07:05:13;95233.94;;;10.67;100.00
33454;BME280;39400;49.744;7.012;2023-04-23T07:07:38;95244.16;;;10.63;100.00
33454;BME280;39400;49.744;7.012;2023-04-23T07:10:04;95232.44;;;10.59;100.00
33454;BME280;39400;49.744;7.012;2023-04-23T07:12:30;95233.94;;;10.67;100.00
33454;BME280;39400;49.744;7.012;2023-04-23T07:14:55;95233.41;;;10.76;100.00
33454;BME280;39400;49.744;7.012;2023-04-23T07:17:21;95229.97;;;10.68;100.00
33454;BME280;39400;49.744;7.012;2023-04-23T07:19:46;95228.75;;;10.73;100.00
33454;BME280;39400;49.744;7.012;2023-04-23T07:22:11;95228.97;;;10.85;100.00
33454;BME280;39400;49.744;7.012;2023-04-23T07:24:36;95225.44;;;10.85;100.00
33454;BME280;39400;49.744;7.012;2023-04-23T07:27:02;95224.47;;;10.99;100.00
33454;BME280;39400;49.744;7.012;2023-04-23T07:29:27;95224.63;;;11.15;100.00
33454;BME280;39400;49.744;7.012;2023-04-23T07:31:52;95221.31;;;11.27;100.00
33454;BME280;39400;49.744;7.012;2023-04-23T07:34:18;95219.53;;;11.40;100.00
33454;BME280;39400;49.744;7.012;2023-04-23T07:36:43;95219.19;;;11.38;100.00
33454;BME280;39400;49.744;7.012;2023-04-23T07:39:08;95213.88;;;11.51;100.00
33454;BME280;39400;49.744;7.012;2023-04-23T07:41:34;95210.63;;;11.80;100.00
33454;BME280;39400;49.744;7.012;2023-04-23T07:43:59;95218.25;;;11.72;100.00
33454;BME280;39400;49.744;7.012;2023-04-23T07:46:25;95210.69;;;11.76;100.00
33454;BME280;39400;49.744;7.012;2023-04-23T07:48:50;95219.41;;;11.75;100.00
33454;BME280;39400;49.744;7.012;2023-04-23T07:51:15;95215.00;;;11.77;100.00
33454;BME280;39400;49.744;7.012;2023-04-23T07:53:41;95208.66;;;11.80;100.00
33454;BME280;39400;49.744;7.012;2023-04-23T07:56:06;95210.44;;;11.67;100.00
33454;BME280;39400;49.744;7.012;2023-04-23T07:58:31;95204.72;;;11.58;100.00
33454;BME280;39400;49.744;7.012;2023-04-23T08:00:57;95209.97;;;11.49;100.00
33454;BME280;39400;49.744;7.012;2023-04-23T08:03:22;95203.75;;;11.45;100.00
33454;BME280;39400;49.744;7.012;2023-04-23T08:05:48;95206.75;;;11.54;100.00
33454;BME280;39400;49.744;7.012;2023-04-23T08:08:13;95204.94;;;11.67;100.00
33454;BME280;39400;49.744;7.012;2023-04-23T08:10:39;95200.31;;;11.87;100.00
33454;BME280;39400;49.744;7.012;2023-04-23T08:13:04;95210.00;;;11.96;100.00
33454;BME280;39400;49.744;7.012;2023-04-23T08:15:30;95204.72;;;11.81;100.00
33454;BME280;39400;49.744;7.012;2023-04-23T08:17:55;95200.53;;;11.97;100.00
33454;BME280;39400;49.744;7.012;2023-04-23T08:20:20;95194.97;;;12.00;100.00
33454;BME280;39400;49.744;7.012;2023-04-23T08:22:46;95202.28;;;12.30;100.00
33454;BME280;39400;49.744;7.012;2023-04-23T08:25:11;95199.41;;;12.37;100.00
33454;BME280;39400;49.744;7.012;2023-04-23T08:27:36;95199.31;;;12.21;100.00
33454;BME280;39400;49.744;7.012;2023-04-23T08:30:02;95196.50;;;12.01;100.00
33454;BME280;39400;49.744;7.012;2023-04-23T08:32:28;95196.63;;;12.18;100.00
33454;BME280;39400;49.744;7.012;2023-04-23T08:34:53;95192.78;;;11.92;100.00
33454;BME280;39400;49.744;7.012;2023-04-23T08:37:19;95190.03;;;11.92;100.00
33454;BME280;39400;49.744;7.012;2023-04-23T08:39:44;95197.72;;;12.00;100.00
33454;BME280;39400;49.744;7.012;2023-04-23T08:42:15;95199.91;;;11.89;100.00
33454;BME280;39400;49.744;7.012;2023-04-23T08:44:45;95204.38;;;12.03;100.00
33454;BME280;39400;49.744;7.012;2023-04-23T08:47:13;95198.03;;;12.06;100.00
33454;BME280;39400;49.744;7.012;2023-04-23T08:49:44;95202.13;;;12.18;100.00
33454;BME280;39400;49.744;7.012;2023-04-23T08:52:24;95207.81;;;12.30;100.00
33454;BME280;39400;49.744;7.012;2023-04-23T08:54:53;95199.72;;;12.40;100.00
33454;BME280;39400;49.744;7.012;2023-04-23T08:57:18;95197.47;;;12.34;100.00
33454;BME280;39400;49.744;7.012;2023-04-23T08:59:45;95199.72;;;12.40;100.00
33454;BME280;39400;49.744;7.012;2023-04-23T09:02:10;95196.31;;;12.12;100.00
33454;BME280;39400;49.744;7.012;2023-04-23T09:04:36;95201.38;;;12.37;100.00
33454;BME280;39400;49.744;7.012;2023-04-23T09:07:02;95208.50;;;12.34;100.00
33454;BME280;39400;49.744;7.012;2023-04-23T09:09:29;95206.13;;;12.36;100.00
33454;BME280;39400;49.744;7.012;2023-04-23T09:11:55;95199.03;;;12.35;100.00
33454;BME280;39400;49.744;7.012;2023-04-23T09:14:22;95202.28;;;12.30;100.00
33454;BME280;39400;49.744;7.012;2023-04-23T09:16:47;95195.44;;;12.38;100.00
33454;BME280;39400;49.744;7.012;2023-04-23T09:19:13;95205.44;;;12.29;100.00
33454;BME280;39400;49.744;7.012;2023-04-23T09:21:38;95189.56;;;12.36;100.00
33454;BME280;39400;49.744;7.012;2023-04-23T09:24:04;95198.19;;;12.38;100.00
33454;BME280;39400;49.744;7.012;2023-04-23T09:26:29;95191.75;;;12.25;100.00
33454;BME280;39400;49.744;7.012;2023-04-23T09:28:55;95192.38;;;12.13;100.00
33454;BME280;39400;49.744;7.012;2023-04-23T09:31:21;95191.34;;;12.27;100.00
33454;BME280;39400;49.744;7.012;2023-04-23T09:33:53;95200.00;;;12.25;100.00
33454;BME280;39400;49.744;7.012;2023-04-23T09:36:20;95199.59;;;12.27;100.00
33454;BME280;39400;49.744;7.012;2023-04-23T09:38:46;95198.84;;;12.26;100.00
33454;BME280;39400;49.744;7.012;2023-04-23T09:41:25;95192.66;;;12.38;100.00
33454;BME280;39400;49.744;7.012;2023-04-23T09:43:56;95179.72;;;12.55;100.00
33454;BME280;39400;49.744;7.012;2023-04-23T09:49:02;95177.25;;;12.61;100.00
33454;BME280;39400;49.744;7.012;2023-04-23T09:51:29;95172.13;;;12.79;100.00
33454;BME280;39400;49.744;7.012;2023-04-23T09:53:54;95171.91;;;12.90;100.00
33454;BME280;39400;49.744;7.012;2023-04-23T09:56:19;95164.28;;;13.14;100.00
33454;BME280;39400;49.744;7.012;2023-04-23T09:58:45;95163.41;;;13.17;100.00
33454;BME280;39400;49.744;7.012;2023-04-23T10:01:10;95166.25;;;13.14;100.00
33454;BME280;39400;49.744;7.012;2023-04-23T10:03:41;95164.66;;;13.32;100.00
33454;BME280;39400;49.744;7.012;2023-04-23T10:06:06;95165.09;;;13.47;100.00
33454;BME280;39400;49.744;7.012;2023-04-23T10:08:32;95159.50;;;13.51;100.00
33454;BME280;39400;49.744;7.012;2023-04-23T10:10:57;95158.78;;;13.47;100.00
33454;BME280;39400;49.744;7.012;2023-04-23T10:13:23;95162.06;;;13.42;100.00
33454;BME280;39400;49.744;7.012;2023-04-23T10:15:48;95156.91;;;13.27;100.00
33454;BME280;39400;49.744;7.012;2023-04-23T10:18:14;95156.53;;;13.25;100.00
33454;BME280;39400;49.744;7.012;2023-04-23T10:21:00;95166.16;;;13.01;100.00
33454;BME280;39400;49.744;7.012;2023-04-23T10:23:26;95153.53;;;12.83;100.00
33454;BME280;39400;49.744;7.012;2023-04-23T10:25:54;95156.97;;;12.71;100.00
33454;BME280;39400;49.744;7.012;2023-04-23T10:28:21;95147.81;;;12.74;100.00
33454;BME280;39400;49.744;7.012;2023-04-23T10:30:47;95151.47;;;12.88;100.00
33454;BME280;39400;49.744;7.012;2023-04-23T10:33:13;95146.38;;;12.86;100.00
33454;BME280;39400;49.744;7.012;2023-04-23T10:35:39;95135.63;;;13.08;100.00
33454;BME280;39400;49.744;7.012;2023-04-23T10:38:05;95144.59;;;13.12;100.00
33454;BME280;39400;49.744;7.012;2023-04-23T10:40:31;95133.63;;;13.08;100.00
33454;BME280;39400;49.744;7.012;2023-04-23T10:42:58;95132.53;;;13.22;100.00
33454;BME280;39400;49.744;7.012;2023-04-23T10:45:24;95133.38;;;13.19;100.00
33454;BME280;39400;49.744;7.012;2023-04-23T10:47:49;95121.16;;;13.20;100.00
33454;BME280;39400;49.744;7.012;2023-04-23T10:50:22;95122.00;;;13.17;100.00
33454;BME280;39400;49.744;7.012;2023-04-23T10:52:48;95114.31;;;13.57;100.00
33454;BME280;39400;49.744;7.012;2023-04-23T10:55:18;95109.91;;;13.76;100.00
33454;BME280;39400;49.744;7.012;2023-04-23T10:57:58;95114.75;;;13.72;100.00
33454;BME280;39400;49.744;7.012;2023-04-23T11:00:24;95114.09;;;13.97;100.00
33454;BME280;39400;49.744;7.012;2023-04-23T11:02:50;95104.69;;;14.37;100.00
33454;BME280;39400;49.744;7.012;2023-04-23T11:05:15;95100.22;;;14.68;100.00
33454;BME280;39400;49.744;7.012;2023-04-23T11:07:40;95091.41;;;14.73;100.00
33454;BME280;39400;49.744;7.012;2023-04-23T11:10:13;95090.19;;;14.33;100.00
33454;BME280;39400;49.744;7.012;2023-04-23T11:12:39;95100.16;;;14.43;100.00
33454;BME280;39400;49.744;7.012;2023-04-23T11:15:12;95095.22;;;14.50;100.00
33454;BME280;39400;49.744;7.012;2023-04-23T11:20:09;95086.19;;;14.21;99.25
33454;BME280;39400;49.744;7.012;2023-04-23T11:22:36;95084.19;;;14.21;97.08
33454;BME280;39400;49.744;7.012;2023-04-23T11:25:02;95085.31;;;14.37;96.66
33454;BME280;39400;49.744;7.012;2023-04-23T11:27:29;95078.50;;;14.41;99.27
33454;BME280;39400;49.744;7.012;2023-04-23T11:29:54;95071.47;;;14.79;99.49
33454;BME280;39400;49.744;7.012;2023-04-23T11:32:20;95065.38;;;14.96;93.90
33454;BME280;39400;49.744;7.012;2023-04-23T11:34:46;95054.50;;;15.15;96.88
33454;BME280;39400;49.744;7.012;2023-04-23T11:37:13;95039.06;;;15.27;92.25
33454;BME280;39400;49.744;7.012;2023-04-23T11:39:39;95032.50;;;15.46;90.29
33454;BME280;39400;49.744;7.012;2023-04-23T11:42:09;95041.94;;;15.36;91.44
33454;BME280;39400;49.744;7.012;2023-04-23T11:44:37;95029.63;;;15.37;90.27
33454;BME280;39400;49.744;7.012;2023-04-23T11:47:02;95032.25;;;15.18;86.60
33454;BME280;39400;49.744;7.012;2023-04-23T11:49:27;95025.84;;;14.96;89.83
33454;BME280;39400;49.744;7.012;2023-04-23T11:51:53;95016.44;;;14.81;90.48
33454;BME280;39400;49.744;7.012;2023-04-23T11:54:24;95024.75;;;14.81;89.79
33454;BME280;39400;49.744;7.012;2023-04-23T11:56:52;95021.28;;;15.15;91.55
33454;BME280;39400;49.744;7.012;2023-04-23T11:59:17;95017.94;;;15.67;92.59
33454;BME280;39400;49.744;7.012;2023-04-23T12:01:44;95004.41;;;15.91;88.84
33454;BME280;39400;49.744;7.012;2023-04-23T12:04:12;94993.28;;;16.13;87.86
33454;BME280;39400;49.744;7.012;2023-04-23T12:06:39;94991.09;;;16.08;82.44
33454;BME280;39400;49.744;7.012;2023-04-23T12:09:05;94982.75;;;15.77;82.71
33454;BME280;39400;49.744;7.012;2023-04-23T12:11:30;94980.16;;;15.83;82.94
33454;BME280;39400;49.744;7.012;2023-04-23T12:13:56;94976.53;;;15.95;83.56
33454;BME280;39400;49.744;7.012;2023-04-23T12:16:39;94975.94;;;16.00;82.35
33454;BME280;39400;49.744;7.012;2023-04-23T12:19:08;94966.09;;;15.99;83.17
33454;BME280;39400;49.744;7.012;2023-04-23T12:21:45;94965.56;;;16.13;84.74
33454;BME280;39400;49.744;7.012;2023-04-23T12:24:11;94966.72;;;16.25;81.11
33454;BME280;39400;49.744;7.012;2023-04-23T12:26:36;94960.00;;;16.13;78.08
33454;BME280;39400;49.744;7.012;2023-04-23T12:29:01;94957.19;;;16.04;77.97
33454;BME280;39400;49.744;7.012;2023-04-23T12:31:28;94956.94;;;16.11;78.48
33454;BME280;39400;49.744;7.012;2023-04-23T12:34:01;94951.06;;;16.09;75.18
33454;BME280;39400;49.744;7.012;2023-04-23T12:36:27;94953.47;;;15.98;74.47
33454;BME280;39400;49.744;7.012;2023-04-23T12:38:53;94945.22;;;16.07;76.71
33454;BME280;39400;49.744;7.012;2023-04-23T12:41:18;94953.38;;;16.42;76.68
33454;BME280;39400;49.744;7.012;2023-04-23T12:43:43;94943.81;;;16.43;74.93
33454;BME280;39400;49.744;7.012;2023-04-23T12:46:09;94941.63;;;16.38;73.31
33454;BME280;39400;49.744;7.012;2023-04-23T12:48:34;94932.44;;;16.50;72.87
33454;BME280;39400;49.744;7.012;2023-04-23T12:50:59;94930.94;;;16.68;74.07
33454;BME280;39400;49.744;7.012;2023-04-23T12:53:25;94924.84;;;16.82;74.03
33454;BME280;39400;49.744;7.012;2023-04-23T12:55:50;94924.06;;;16.81;74.35